Tuesday, November 21, 2017, 9:58 PM CST
Back to Local

KOMA, Omaha Eppley Airfield

Location: Omaha, NE, United States Lat: 41.3
Local Time: 9:58 PM CST ( 3:58 GMT) Lon: -95.9
Time Zone: US/Central Elev: 984 ft

Show me the last for .
Show Decoded

2017-11-21 20:52 METAR KOMA 220252Z 34007KT 10SM CLR M04/M12 A3041 RMK AO2 SLP309 T10441117 51020
                 =
2017-11-21 19:52 METAR KOMA 220152Z 33008KT 10SM CLR M04/M12 A3039 RMK AO2 SLP302 T10391117 =
2017-11-21 18:52 METAR KOMA 220052Z 33013KT 10SM CLR M03/M12 A3038 RMK AO2 SLP298 T10281117 =
2017-11-21 17:52 METAR KOMA 212352Z 34010G18KT 10SM CLR M02/M12 A3035 RMK AO2 SLP288 T10221117
                 10011 21022 51019 =
2017-11-21 16:52 METAR KOMA 212252Z 33015KT 10SM CLR M01/M12 A3034 RMK AO2 SLP283 T10111117 =
2017-11-21 15:52 METAR KOMA 212152Z 33016G24KT 10SM CLR 00/M11 A3032 RMK AO2 PK WND 32027/2109
                 SLP276 T00001111 =
2017-11-21 14:52 METAR KOMA 212052Z 33019G24KT 10SM CLR 01/M11 A3030 RMK AO2 PK WND 34029/2003
                 SLP268 T00061106 53023 =
2017-11-21 13:52 METAR KOMA 211952Z 33023G28KT 10SM CLR 01/M11 A3027 RMK AO2 PK WND 33029/1934
                 SLP259 T00061106 =
2017-11-21 12:52 METAR KOMA 211852Z 34021G28KT 10SM CLR 00/M11 A3025 RMK AO2 PK WND 35032/1755
                 SLP251 T00001106 =
2017-11-21 11:52 METAR KOMA 211752Z 35022G31KT 10SM CLR M01/M11 A3023 RMK AO2 PK WND 33031/1715
                 SLP244 60000 T10061106 10050 21017 51051 =
2017-11-21 10:52 METAR KOMA 211652Z 34025G31KT 10SM FEW110 M01/M11 A3019 RMK AO2 PK WND
                 36034/1622 SLP230 T10111106 =
2017-11-21 09:52 METAR KOMA 211552Z 35020G30KT 10SM SCT085 SCT110 00/M09 A3016 RMK AO2 PK WND
                 36034/1518 PRESRR SLP220 T00001094 =
2017-11-21 08:52 METAR KOMA 211452Z 33026G31KT 10SM BKN085 BKN110 04/M08 A3007 RMK AO2 PK WND
                 32032/1437 SLP188 60000 T00391083 51051 =
2017-11-21 07:52 METAR KOMA 211352Z 33007KT 10SM BKN100 BKN110 03/M02 A3002 RMK AO2 RAE08 SLP172
                 VIRGA N P0000 T00331022 =
2017-11-21 06:52 METAR KOMA 211252Z 34011KT 10SM -RA BKN070 OVC250 03/M02 A2999 RMK AO2 SLP159
                 P0000 T00331022 =
2017-11-21 05:52 METAR KOMA 211152Z 35021G30KT 10SM -RA BKN060 OVC080 04/M03 A2991 RMK AO2 PK WND
                 36031/1126 RAB43 SLP134 P0000 60000 T00391028 10061 20011 53050 =
2017-11-21 04:52 METAR KOMA 211052Z 34023G30KT 10SM BKN120 OVC200 06/M04 A2986 RMK AO2 PK WND
                 34030/1047 SLP114 T00611044 =
2017-11-21 03:52 METAR KOMA 210952Z 36013KT 10SM BKN200 OVC250 05/M02 A2981 RMK AO2 PRESRR SLP097
                 T00501022 =
2017-11-21 02:52 METAR KOMA 210852Z 36008KT 10SM SCT200 OVC250 02/M02 A2976 RMK AO2 SLP081
                 T00221022 53020 =
2017-11-21 01:52 METAR KOMA 210752Z 33003KT 10SM BKN250 02/M03 A2973 RMK AO2 SLP069 T00171028 =
2017-11-21 00:52 METAR KOMA 210652Z 00000KT 10SM BKN250 03/M02 A2972 RMK AO2 SLP067 T00331022 =
2017-11-20 23:52 METAR KOMA 210552Z 00000KT 10SM BKN250 04/M02 A2970 RMK AO2 SLP060 T00391022
                 10106 20039 401500000 52015 =
2017-11-20 22:52 METAR KOMA 210452Z 00000KT 10SM OVC250 07/M02 A2969 RMK AO2 SLP054 T00721022 =

Support USWX by starting your Amazon purchase here.